EKEL weather

Endelave Flyveplads
Endelave, Central Jutland, Denmark

Public forecast

Using degrees Celsius for public forecast. Weather courtesy of forecast.io.

Closest aviation weather report (METAR) to Endelave Flyveplads

Closest report is Odense Airport, 17.0 nm (31.5 km) S. Retrieved 2019/10/21 07:20 UTC (0 seconds ago):

EKOD 210720Z 05008KT 4500 BR BKN014 BKN017 11/10 Q1018

Closest aviation forecast (TAF) to Endelave Flyveplads

Closest forecast is Aarhus Airport, 34.9 nm (64.7 km) NNE. Retrieved 2019/10/21 06:30 UTC (39 minutes ago):

TAF EKAH 210517Z 2106/2206 06007KT 0300 FG VV001 TEMPO 2106/2109 3000 BR SCT002 BECMG 2109/2111 6000 NSW BKN015 TEMPO 2111/2201 3000 RADZ BR BKN004 BECMG 2201/2203 0100 FG VV001